Time;durP1;ratioP1;P1;durP2;ratioP2;P2;SDS_P1;SDS_P2;PMS_P1;PMS_P2;Temp;Humidity;BMP_temperature;BMP_pressure;BME280_temperature;BME280_humidity;BME280_pressure;Samples;Min_cycle;Max_cycle;Signal;HPM_P1;HPM_P2
2022/01/29 00:02:25;;;;;;;26.13;11.85;;;;;;;3.54;98.42;101434.19;12231949;19;20030;-82
2022/01/29 00:06:27;;;;;;;24.08;12.13;;;;;;;3.55;98.68;101419.56;12229972;19;20011;-82
2022/01/29 00:10:31;;;;;;;24.52;11.43;;;;;;;3.54;98.31;101421.44;12231244;19;20074;-82
2022/01/29 00:14:33;;;;;;;25.85;10.57;;;;;;;3.48;98.97;101413.06;12240815;19;20064;-82
2022/01/29 00:18:35;;;;;;;18.13;7.47;;;;;;;3.50;98.73;101406.41;12236005;19;20034;-82
2022/01/29 00:22:37;;;;;;;19.73;10.52;;;;;;;3.45;98.83;101400.63;12234179;19;20015;-83
2022/01/29 00:26:39;;;;;;;23.77;9.68;;;;;;;3.45;99.12;101399.75;12244516;19;20010;-82
2022/01/29 00:30:42;;;;;;;23.83;10.70;;;;;;;3.42;99.12;101393.63;12236307;19;20052;-82
2022/01/29 00:34:46;;;;;;;22.85;10.85;;;;;;;3.40;98.99;101401.13;12233668;19;20006;-83
2022/01/29 00:38:49;;;;;;;25.50;10.27;;;;;;;3.47;98.66;101395.84;12245193;19;20096;-82
2022/01/29 00:42:51;;;;;;;20.55;10.18;;;;;;;3.40;99.21;101392.09;12238590;19;20041;-84
2022/01/29 00:46:52;;;;;;;18.95;9.88;;;;;;;3.46;98.82;101385.97;12246500;19;20010;-83
2022/01/29 00:50:54;;;;;;;22.88;10.98;;;;;;;3.46;98.80;101388.72;12240372;19;20025;-82
2022/01/29 00:54:56;;;;;;;20.13;10.48;;;;;;;3.40;98.93;101387.50;12249500;19;20043;-84
2022/01/29 00:58:58;;;;;;;25.13;10.40;;;;;;;3.50;98.37;101395.53;12253770;19;20038;-85
2022/01/29 01:02:59;;;;;;;20.13;10.05;;;;;;;3.55;98.13;101386.88;12244337;19;20444;-85
2022/01/29 01:07:01;;;;;;;21.50;9.85;;;;;;;3.52;98.27;101368.97;12235848;19;20019;-84
2022/01/29 01:11:04;;;;;;;23.67;9.80;;;;;;;3.49;98.71;101371.19;12237583;19;20014;-84
2022/01/29 01:15:07;;;;;;;25.02;10.82;;;;;;;3.49;98.49;101347.50;12245159;19;20030;-84
2022/01/29 01:19:09;;;;;;;20.70;10.27;;;;;;;3.47;98.83;101346.78;12237102;19;20101;-84
2022/01/29 01:23:12;;;;;;;27.30;10.65;;;;;;;3.50;98.59;101362.81;12225327;19;20078;-83
2022/01/29 01:27:15;;;;;;;24.10;10.15;;;;;;;3.50;98.53;101338.28;12239783;19;20083;-85
2022/01/29 01:31:17;;;;;;;24.52;10.40;;;;;;;3.49;98.63;101333.88;12243906;19;20014;-84
2022/01/29 01:35:28;;;;;;;23.00;10.52;;;;;;;3.50;98.58;101326.53;12231295;19;20013;-84
2022/01/29 01:39:33;;;;;;;24.95;10.45;;;;;;;3.49;98.90;101317.50;12232014;19;20006;-85
2022/01/29 01:43:41;;;;;;;25.85;10.35;;;;;;;3.39;99.76;101314.94;12236986;19;20007;-86
2022/01/29 01:47:50;;;;;;;22.35;9.48;;;;;;;3.36;100.00;101300.78;12239890;19;20017;-86
2022/01/29 01:52:13;;;;;;;22.75;9.98;;;;;;;3.38;100.00;101296.03;12237194;19;20010;-85
2022/01/29 01:56:17;;;;;;;25.00;11.77;;;;;;;3.42;100.00;101281.03;12232090;19;20010;-86
2022/01/29 02:00:20;;;;;;;28.08;11.63;;;;;;;3.39;100.00;101270.47;12235562;19;20455;-86
2022/01/29 02:04:22;;;;;;;22.37;10.80;;;;;;;3.39;100.00;101263.16;12229123;19;20010;-86
2022/01/29 02:08:25;;;;;;;23.65;9.68;;;;;;;3.41;100.00;101263.84;12232322;19;20474;-86
2022/01/29 02:12:31;;;;;;;27.27;10.77;;;;;;;3.45;100.00;101261.66;12246516;19;20017;-86
2022/01/29 02:16:32;;;;;;;20.33;9.50;;;;;;;3.45;100.00;101264.38;12252580;19;20010;-87
2022/01/29 02:20:34;;;;;;;23.08;10.85;;;;;;;3.46;100.00;101257.06;12247029;19;20010;-86
2022/01/29 02:24:37;;;;;;;19.77;8.80;;;;;;;3.43;100.00;101242.72;12235522;19;20030;-84
2022/01/29 02:28:39;;;;;;;22.40;10.02;;;;;;;3.41;100.00;101246.63;12252079;19;20018;-86
2022/01/29 02:32:42;;;;;;;21.70;10.30;;;;;;;3.41;100.00;101254.81;12241732;19;20034;-86
2022/01/29 02:36:45;;;;;;;19.10;9.27;;;;;;;3.38;100.00;101228.75;12238347;19;20010;-87
2022/01/29 02:40:52;;;;;;;20.48;9.77;;;;;;;3.37;100.00;101227.06;12226694;19;20402;-86
2022/01/29 02:44:56;;;;;;;23.08;10.43;;;;;;;3.36;100.00;101225.38;12230204;19;20520;-86
2022/01/29 02:49:01;;;;;;;24.48;10.10;;;;;;;3.32;100.00;101217.69;12234035;19;20086;-87
2022/01/29 02:53:03;;;;;;;22.75;10.70;;;;;;;3.29;100.00;101198.94;12233789;19;20082;-86
2022/01/29 02:57:05;;;;;;;24.25;11.10;;;;;;;3.26;100.00;101194.69;12227473;19;20038;-87
2022/01/29 03:01:08;;;;;;;24.08;10.13;;;;;;;3.22;100.00;101187.03;12225663;19;20010;-85
2022/01/29 03:05:10;;;;;;;21.83;9.25;;;;;;;3.19;100.00;101174.59;12231845;19;20568;-87
2022/01/29 03:09:12;;;;;;;23.33;10.05;;;;;;;3.20;100.00;101174.41;12219987;19;20035;-85
2022/01/29 03:13:16;;;;;;;28.23;11.27;;;;;;;3.17;100.00;101171.19;12227632;19;20014;-86
2022/01/29 03:17:18;;;;;;;19.73;8.85;;;;;;;3.16;100.00;101155.88;12228262;19;20460;-87
2022/01/29 03:21:20;;;;;;;21.92;9.95;;;;;;;3.16;100.00;101164.88;12233498;19;20035;-86
2022/01/29 03:25:22;;;;;;;22.77;9.73;;;;;;;3.15;100.00;101160.47;12225339;19;20010;-85
2022/01/29 03:29:23;;;;;;;20.77;9.07;;;;;;;3.10;100.00;101162.00;12225708;19;20002;-86
2022/01/29 03:33:25;;;;;;;19.83;8.38;;;;;;;3.11;100.00;101167.25;12235483;19;20491;-86
2022/01/29 03:37:27;;;;;;;17.77;8.20;;;;;;;3.09;100.00;101152.94;12224547;19;20694;-87
2022/01/29 03:41:30;;;;;;;19.65;9.50;;;;;;;3.14;100.00;101161.47;12235177;19;20382;-86
2022/01/29 03:45:31;;;;;;;21.75;9.02;;;;;;;3.19;100.00;101171.88;12231767;19;20007;-85
2022/01/29 03:49:33;;;;;;;18.90;9.10;;;;;;;3.17;100.00;101158.41;12230873;19;20011;-86
2022/01/29 03:53:35;;;;;;;21.15;8.73;;;;;;;3.09;100.00;101147.50;12231011;19;20022;-86
2022/01/29 03:57:36;;;;;;;21.35;9.00;;;;;;;3.05;100.00;101148.00;12230196;19;20002;-86
2022/01/29 04:01:38;;;;;;;21.13;8.20;;;;;;;3.10;100.00;101159.25;12235700;19;20003;-85
2022/01/29 04:05:40;;;;;;;21.75;9.73;;;;;;;3.09;100.00;101157.53;12239897;19;20364;-86
2022/01/29 04:09:48;;;;;;;21.00;8.73;;;;;;;3.08;100.00;101158.56;12234250;19;20022;-85
2022/01/29 04:13:50;;;;;;;18.33;8.52;;;;;;;3.06;100.00;101146.97;12235513;19;20010;-85
2022/01/29 04:17:51;;;;;;;21.00;9.93;;;;;;;3.00;100.00;101143.06;12231462;19;20500;-85
2022/01/29 04:21:53;;;;;;;22.42;9.23;;;;;;;3.02;100.00;101143.75;12226720;19;20032;-86
2022/01/29 04:26:03;;;;;;;22.05;10.38;;;;;;;3.05;100.00;101146.13;12242975;19;20010;-85
2022/01/29 04:30:12;;;;;;;22.70;9.48;;;;;;;3.04;100.00;101144.44;12254970;19;20007;-85
2022/01/29 04:34:19;;;;;;;22.48;9.48;;;;;;;3.07;100.00;101148.72;12254889;19;20015;-84
2022/01/29 04:38:22;;;;;;;20.27;9.40;;;;;;;3.04;100.00;101146.31;12251942;19;20066;-84
2022/01/29 04:42:24;;;;;;;22.05;9.77;;;;;;;3.04;100.00;101125.38;12233089;19;20007;-84
2022/01/29 04:46:27;;;;;;;;;;;;;;;2.98;100.00;101128.78;12236936;19;20111;-85
2022/01/29 04:50:29;;;;;;;20.40;9.27;;;;;;;2.95;100.00;101119.06;12245266;19;19947;-86
2022/01/29 04:54:31;;;;;;;23.15;9.65;;;;;;;2.97;100.00;101137.94;12238740;19;20011;-84
2022/01/29 04:58:33;;;;;;;22.30;10.50;;;;;;;2.89;100.00;101118.91;12235380;19;20457;-87
2022/01/29 05:02:35;;;;;;;23.53;10.33;;;;;;;2.99;100.00;101114.13;12236992;19;20084;-86
2022/01/29 05:06:38;;;;;;;21.90;9.95;;;;;;;3.05;100.00;101096.28;12235365;19;20035;-86
2022/01/29 05:10:40;;;;;;;21.35;10.68;;;;;;;3.08;100.00;101109.53;12242207;19;20007;-86
2022/01/29 05:15:04;;;;;;;25.15;11.52;;;;;;;3.11;100.00;101111.94;12236680;19;20007;-84
2022/01/29 05:28:37;;;;;;;22.63;10.73;;;;;;;3.12;100.00;101110.91;12234200;19;20002;-85
2022/01/29 05:32:39;;;;;;;26.70;11.52;;;;;;;3.16;100.00;101107.69;12240599;19;20361;-87
2022/01/29 05:36:46;;;;;;;24.67;9.23;;;;;;;3.13;100.00;101094.41;12230229;19;20101;-86
2022/01/29 05:40:48;;;;;;;25.38;10.63;;;;;;;3.14;100.00;101087.94;12229681;19;20014;-86
2022/01/29 05:44:52;;;;;;;24.92;9.30;;;;;;;3.13;100.00;101079.94;12234927;19;20010;-85
2022/01/29 05:49:05;;;;;;;21.77;9.55;;;;;;;3.11;100.00;101080.09;12241013;19;20002;-88
2022/01/29 05:53:16;;;;;;;23.10;9.27;;;;;;;3.14;100.00;101082.47;12232226;19;20002;-86
2022/01/29 05:57:45;;;;;;;22.40;9.68;;;;;;;3.10;100.00;101080.28;12233753;19;20035;-86
2022/01/29 06:01:48;;;;;;;20.63;9.65;;;;;;;3.06;100.00;101079.75;12222663;19;20015;-86
2022/01/29 06:06:04;;;;;;;23.58;10.55;;;;;;;3.04;100.00;101079.09;12236236;19;20003;-88
2022/01/29 06:10:24;;;;;;;23.55;10.70;;;;;;;3.05;100.00;101088.09;12234796;19;20086;-86
2022/01/29 06:14:36;;;;;;;22.25;9.77;;;;;;;3.03;100.00;101082.81;12234612;19;20011;-85
2022/01/29 06:18:38;;;;;;;21.88;9.93;;;;;;;3.00;100.00;101085.88;12239519;19;20010;-85
2022/01/29 06:22:43;;;;;;;21.73;9.47;;;;;;;2.96;100.00;101070.91;12236819;19;20027;-86
2022/01/29 06:26:45;;;;;;;25.08;10.73;;;;;;;2.93;100.00;101073.97;12235139;19;21585;-86
2022/01/29 06:30:46;;;;;;;25.10;9.75;;;;;;;2.90;100.00;101052.53;12247517;19;20096;-85
2022/01/29 06:34:49;;;;;;;24.35;9.45;;;;;;;2.92;100.00;101066.84;12245518;19;20014;-85
2022/01/29 06:38:50;;;;;;;20.27;8.90;;;;;;;2.95;100.00;101063.78;12242002;19;20597;-84
2022/01/29 06:42:52;;;;;;;20.13;9.30;;;;;;;2.93;100.00;101065.81;12233452;19;19999;-85
2022/01/29 06:46:54;;;;;;;28.73;10.93;;;;;;;2.99;100.00;101065.13;12232427;19;20500;-85
2022/01/29 06:50:56;;;;;;;23.35;10.65;;;;;;;2.97;100.00;101068.03;12228010;19;20013;-83
2022/01/29 06:54:57;;;;;;;25.58;10.27;;;;;;;2.98;100.00;101068.88;12240996;19;20010;-85
2022/01/29 06:58:59;;;;;;;28.80;11.35;;;;;;;2.93;100.00;101071.25;12228114;19;20058;-85
2022/01/29 07:03:10;;;;;;;24.55;9.50;;;;;;;2.93;100.00;101076.69;12229333;19;20017;-84
2022/01/29 07:07:12;;;;;;;25.42;10.30;;;;;;;2.92;100.00;101072.28;12235125;19;20011;-85
2022/01/29 07:11:18;;;;;;;29.30;10.25;;;;;;;2.91;100.00;101062.38;12227859;19;20003;-84
2022/01/29 07:15:20;;;;;;;23.10;10.20;;;;;;;2.86;100.00;101064.78;12241183;19;20021;-85
2022/01/29 07:19:21;;;;;;;24.27;9.77;;;;;;;2.88;100.00;101060.84;12235936;19;20342;-85
2022/01/29 07:23:23;;;;;;;26.67;10.95;;;;;;;2.89;100.00;101061.72;12234775;19;20003;-83
2022/01/29 07:27:25;;;;;;;19.92;8.85;;;;;;;2.86;100.00;101053.91;12226536;19;20066;-84
2022/01/29 07:31:26;;;;;;;21.33;8.98;;;;;;;2.93;100.00;101054.91;12227848;19;20034;-85
2022/01/29 07:35:28;;;;;;;21.88;8.88;;;;;;;2.91;100.00;101046.06;12231738;19;20002;-83
2022/01/29 07:39:30;;;;;;;20.77;8.60;;;;;;;2.91;100.00;101043.31;12239252;19;20073;-84
2022/01/29 07:43:31;;;;;;;19.77;7.55;;;;;;;2.86;100.00;101041.13;12234076;19;20007;-85
2022/01/29 07:47:36;;;;;;;19.77;8.00;;;;;;;2.88;100.00;101035.50;12230702;19;20357;-86
2022/01/29 07:51:39;;;;;;;19.95;8.43;;;;;;;2.89;100.00;101021.72;12235434;19;20025;-85
2022/01/29 07:55:40;;;;;;;23.77;7.57;;;;;;;2.88;100.00;101024.59;12241920;19;20031;-86
2022/01/29 07:59:42;;;;;;;22.15;7.82;;;;;;;2.87;100.00;101010.16;12224207;19;20299;-84
2022/01/29 08:03:46;;;;;;;20.13;8.63;;;;;;;2.85;100.00;101019.50;12252208;19;20011;-84
2022/01/29 08:07:48;;;;;;;18.33;7.50;;;;;;;2.92;100.00;101015.09;12235615;19;20003;-85
2022/01/29 08:11:49;;;;;;;17.38;7.53;;;;;;;2.99;100.00;101016.09;12241236;19;20010;-85
2022/01/29 08:15:51;;;;;;;15.50;7.05;;;;;;;3.03;100.00;101006.56;12236535;19;20587;-86
2022/01/29 08:19:53;;;;;;;17.38;6.75;;;;;;;3.06;100.00;101016.25;12230978;19;20039;-84
2022/01/29 08:23:55;;;;;;;19.53;7.07;;;;;;;3.16;100.00;101012.34;12215080;19;20015;-84
2022/01/29 08:27:57;;;;;;;19.33;9.40;;;;;;;3.20;100.00;101016.41;12229993;19;20003;-85
2022/01/29 08:32:02;;;;;;;19.15;7.32;;;;;;;3.25;100.00;101012.34;12233521;19;20464;-86
2022/01/29 08:36:07;;;;;;;16.35;6.38;;;;;;;3.22;100.00;101020.88;12218121;19;20097;-84
2022/01/29 08:40:10;;;;;;;19.63;8.13;;;;;;;3.29;100.00;101021.88;12227672;19;20003;-85
2022/01/29 08:44:11;;;;;;;19.98;6.75;;;;;;;3.22;100.00;101012.69;12228520;19;20508;-86
2022/01/29 08:48:18;;;;;;;15.52;6.50;;;;;;;3.20;100.00;101010.97;12235687;19;20508;-85
2022/01/29 08:52:20;;;;;;;15.95;6.15;;;;;;;3.21;100.00;101009.09;12227963;19;20026;-82
2022/01/29 08:56:22;;;;;;;14.63;5.90;;;;;;;3.26;100.00;101017.59;12234360;19;20011;-84
2022/01/29 09:00:23;;;;;;;16.95;6.75;;;;;;;3.28;100.00;101020.19;12231513;19;20027;-83
2022/01/29 09:04:25;;;;;;;15.38;6.25;;;;;;;3.28;100.00;101021.03;12225615;19;20014;-84
2022/01/29 09:08:26;;;;;;;16.27;6.95;;;;;;;3.30;100.00;101010.81;12230965;19;20077;-84
2022/01/29 09:12:29;;;;;;;16.13;7.28;;;;;;;3.24;100.00;101016.06;12233743;19;20003;-84
2022/01/29 09:16:31;;;;;;;;;;;;;;;3.30;100.00;101002.63;12234339;19;20011;-84
2022/01/29 09:20:33;;;;;;;16.70;7.35;;;;;;;3.27;100.00;101002.09;12241120;19;20000;-83
2022/01/29 09:24:38;;;;;;;15.77;6.35;;;;;;;3.32;100.00;100997.00;12235546;19;20031;-83
2022/01/29 09:28:43;;;;;;;15.23;6.38;;;;;;;3.38;100.00;100988.13;12245316;19;20007;-84
2022/01/29 09:32:46;;;;;;;19.88;6.95;;;;;;;3.45;100.00;100978.25;12231901;19;20019;-85
2022/01/29 09:36:47;;;;;;;17.33;7.75;;;;;;;3.49;100.00;100982.31;12211408;19;20014;-84
2022/01/29 09:40:54;;;;;;;18.20;7.07;;;;;;;3.51;100.00;100985.72;12242699;19;20011;-84
2022/01/29 09:44:57;;;;;;;14.13;6.53;;;;;;;3.56;100.00;100986.03;12188121;19;20058;-83
2022/01/29 09:48:59;;;;;;;17.20;6.80;;;;;;;3.60;100.00;100981.94;12237325;19;20036;-82
2022/01/29 09:53:02;;;;;;;15.95;6.53;;;;;;;3.70;100.00;100981.72;12241006;19;20043;-83
2022/01/29 09:57:04;;;;;;;20.08;8.05;;;;;;;3.70;100.00;100983.59;12237859;19;20023;-82
2022/01/29 10:01:06;;;;;;;14.02;6.68;;;;;;;3.68;100.00;100977.47;12239523;19;20492;-83
2022/01/29 10:05:11;;;;;;;10.55;4.68;;;;;;;3.81;100.00;100969.59;12237947;19;20025;-82
2022/01/29 10:09:32;;;;;;;13.80;5.70;;;;;;;3.95;100.00;100967.97;12242377;19;20357;-81
2022/01/29 10:13:36;;;;;;;8.20;4.18;;;;;;;4.05;100.00;100960.44;12239456;19;20791;-82
2022/01/29 10:17:49;;;;;;;4.70;2.30;;;;;;;4.10;100.00;100945.25;12238711;19;20010;-82
2022/01/29 10:21:50;;;;;;;4.03;2.17;;;;;;;4.24;100.00;100959.97;12239762;19;20055;-80
2022/01/29 10:25:52;;;;;;;5.72;1.98;;;;;;;4.37;99.38;100956.63;12228379;19;20555;-82
2022/01/29 10:30:00;;;;;;;3.73;1.97;;;;;;;4.49;98.59;100951.59;12232771;19;20003;-81
2022/01/29 10:34:23;;;;;;;12.52;5.45;;;;;;;4.51;98.17;100960.47;12235166;19;20008;-83
2022/01/29 10:38:28;;;;;;;14.07;5.95;;;;;;;4.36;98.82;100954.94;12235433;19;20100;-83
2022/01/29 10:42:36;;;;;;;14.70;6.63;;;;;;;4.42;99.13;100943.28;12226570;19;20499;-82
2022/01/29 10:46:50;;;;;;;14.77;7.05;;;;;;;4.47;99.39;100946.34;12230303;19;20010;-82
2022/01/29 10:51:12;;;;;;;10.88;6.55;;;;;;;4.29;99.89;100938.44;12236486;19;20018;-81
2022/01/29 10:55:14;;;;;;;15.02;6.88;;;;;;;4.19;100.00;100950.63;12240827;19;20034;-84
2022/01/29 10:59:16;;;;;;;13.83;6.53;;;;;;;4.17;100.00;100955.44;12236034;19;20038;-83
2022/01/29 11:03:17;;;;;;;13.77;6.13;;;;;;;4.19;100.00;100948.72;12247126;19;20102;-85
2022/01/29 11:07:24;;;;;;;13.32;5.55;;;;;;;4.27;100.00;100943.22;12241913;19;20099;-83
2022/01/29 11:11:27;;;;;;;12.18;6.07;;;;;;;4.34;100.00;100941.50;12257830;19;20038;-83
2022/01/29 11:15:45;;;;;;;11.32;5.78;;;;;;;4.30;100.00;100939.28;12248042;19;20450;-81
2022/01/29 11:19:47;;;;;;;14.18;5.80;;;;;;;4.23;100.00;100938.34;12252807;19;20002;-85
2022/01/29 11:23:50;;;;;;;6.40;3.67;;;;;;;4.35;100.00;100928.69;12240082;19;20035;-82
2022/01/29 11:28:26;;;;;;;4.55;2.55;;;;;;;4.64;99.58;100908.84;12240795;19;20010;-83
2022/01/29 11:32:33;;;;;;;7.95;2.55;;;;;;;4.92;98.40;100913.69;12241264;19;20023;-83
2022/01/29 11:36:47;;;;;;;6.10;3.20;;;;;;;5.18;97.08;100902.34;12233135;19;20041;-81
2022/01/29 11:40:51;;;;;;;7.38;3.50;;;;;;;5.32;95.71;100897.88;12234419;19;20007;-82
2022/01/29 11:44:53;;;;;;;8.38;4.78;;;;;;;5.32;95.28;100893.25;12244003;19;20058;-81
2022/01/29 11:48:56;;;;;;;7.93;4.45;;;;;;;5.23;95.81;100891.66;12235856;19;20485;-82
2022/01/29 11:53:03;;;;;;;8.68;4.55;;;;;;;5.05;97.06;100880.25;12227415;19;20015;-84
2022/01/29 11:57:10;;;;;;;12.02;5.25;;;;;;;4.98;98.13;100877.44;12238551;19;20102;-83
2022/01/29 12:01:31;;;;;;;10.80;5.93;;;;;;;4.78;99.71;100864.31;12243710;19;20025;-85
2022/01/29 12:10:36;;;;;;;17.00;7.88;;;;;;;4.57;100.00;100840.47;12237069;19;20070;-83
2022/01/29 12:14:37;;;;;;;20.25;8.05;;;;;;;4.45;100.00;100833.75;12227506;19;20113;-87
2022/01/29 12:18:39;;;;;;;16.40;8.38;;;;;;;4.34;100.00;100831.47;12246502;19;20015;-82
2022/01/29 12:22:42;;;;;;;15.70;8.27;;;;;;;4.27;100.00;100814.16;12235896;19;20028;-83
2022/01/29 12:26:52;;;;;;;;;;;;;;;4.26;100.00;100807.00;12235321;19;20467;-83
2022/01/29 12:30:54;;;;;;;14.52;6.95;;;;;;;4.31;100.00;100801.81;12234645;19;19937;-83
2022/01/29 12:35:33;;;;;;;16.70;8.27;;;;;;;4.21;100.00;100785.72;12235756;19;20046;-84
2022/01/29 12:39:40;;;;;;;18.50;9.15;;;;;;;4.25;100.00;100778.00;12241661;19;20022;-84
2022/01/29 12:43:59;;;;;;;18.13;7.88;;;;;;;4.38;100.00;100767.31;12243771;19;20063;-85
2022/01/29 12:48:11;;;;;;;18.90;8.07;;;;;;;4.41;100.00;100761.50;12249358;19;20026;-82
2022/01/29 12:52:16;;;;;;;16.30;7.50;;;;;;;4.35;100.00;100756.78;12248965;19;20015;-82
2022/01/29 12:56:18;;;;;;;15.35;8.30;;;;;;;4.38;100.00;100752.84;12265582;19;20045;-83
2022/01/29 13:00:24;;;;;;;17.42;7.88;;;;;;;4.32;100.00;100747.09;12254674;19;20010;-85
2022/01/29 13:04:27;;;;;;;14.82;7.93;;;;;;;4.32;100.00;100732.59;12245133;19;20077;-83
2022/01/29 13:08:29;;;;;;;13.70;7.22;;;;;;;4.29;100.00;100736.53;12247920;19;20073;-85
2022/01/29 13:12:43;;;;;;;14.38;7.25;;;;;;;4.24;100.00;100732.66;12249985;19;20031;-84
2022/01/29 13:16:46;;;;;;;13.93;7.07;;;;;;;4.22;100.00;100715.63;12254551;19;20063;-85
2022/01/29 13:20:52;;;;;;;12.80;6.30;;;;;;;4.24;100.00;100708.97;12240232;19;20333;-82
2022/01/29 13:25:03;;;;;;;11.57;6.30;;;;;;;4.29;100.00;100692.88;12255572;19;19995;-81
2022/01/29 13:29:08;;;;;;;14.32;6.30;;;;;;;4.20;100.00;100693.16;12251023;19;20019;-85
2022/01/29 13:33:24;;;;;;;14.88;5.93;;;;;;;4.13;100.00;100684.84;12244616;19;20007;-85
2022/01/29 13:37:34;;;;;;;12.93;6.28;;;;;;;4.10;100.00;100686.09;12237787;19;20007;-83
2022/01/29 13:41:36;;;;;;;10.18;5.03;;;;;;;4.14;100.00;100683.00;12246560;19;20019;-84
2022/01/29 13:45:53;;;;;;;10.43;5.93;;;;;;;4.13;100.00;100695.78;12250870;19;20581;-85
2022/01/29 13:49:55;;;;;;;11.02;6.13;;;;;;;4.19;100.00;100697.75;12239969;19;20046;-85
2022/01/29 13:54:02;;;;;;;9.13;5.07;;;;;;;4.22;100.00;100707.44;12237781;19;20003;-86
2022/01/29 13:58:05;;;;;;;10.98;5.18;;;;;;;4.14;100.00;100699.38;12249754;19;20109;-82
2022/01/29 14:02:08;;;;;;;13.38;5.28;;;;;;;4.19;100.00;100692.28;12239555;19;20018;-86
2022/01/29 14:06:19;;;;;;;13.10;5.50;;;;;;;4.16;100.00;100694.56;12233027;19;20022;-80
2022/01/29 14:10:20;;;;;;;9.77;5.10;;;;;;;4.11;100.00;100697.84;12245741;19;20042;-83
2022/01/29 14:14:27;;;;;;;9.35;4.93;;;;;;;4.19;100.00;100688.72;12237615;19;20015;-85
2022/01/29 14:18:33;;;;;;;9.45;4.93;;;;;;;4.27;100.00;100678.56;12249953;19;20078;-84
2022/01/29 14:22:39;;;;;;;11.88;5.95;;;;;;;4.25;100.00;100679.78;12252222;19;20010;-84
2022/01/29 14:26:41;;;;;;;10.32;5.53;;;;;;;4.21;100.00;100686.66;12247258;19;20006;-85
2022/01/29 14:30:45;;;;;;;11.48;5.93;;;;;;;4.28;100.00;100701.25;12252557;19;20108;-86
2022/01/29 14:34:50;;;;;;;11.40;5.40;;;;;;;4.22;100.00;100678.28;12251311;19;20017;-86
2022/01/29 14:38:52;;;;;;;10.63;6.05;;;;;;;4.23;100.00;100679.16;12247875;19;20023;-86
2022/01/29 14:42:55;;;;;;;11.18;5.70;;;;;;;4.28;100.00;100680.28;12249369;19;20043;-85
2022/01/29 14:46:58;;;;;;;9.20;5.18;;;;;;;4.40;100.00;100677.06;12250394;19;20041;-83
2022/01/29 14:51:03;;;;;;;8.65;4.22;;;;;;;4.44;100.00;100653.84;12249676;19;20006;-83
2022/01/29 14:55:05;;;;;;;6.70;3.97;;;;;;;4.49;100.00;100657.69;12241864;19;20035;-84
2022/01/29 14:59:06;;;;;;;7.78;4.18;;;;;;;4.62;100.00;100645.25;12247550;19;20009;-83
2022/01/29 15:03:08;;;;;;;9.40;4.60;;;;;;;4.63;100.00;100644.22;12243254;19;20014;-85
2022/01/29 15:07:10;;;;;;;7.45;3.65;;;;;;;4.64;100.00;100618.59;12240879;19;20011;-86
2022/01/29 15:11:11;;;;;;;7.05;4.53;;;;;;;4.70;100.00;100620.56;12238461;19;20007;-86
2022/01/29 15:15:33;;;;;;;8.68;4.32;;;;;;;4.61;100.00;100603.47;12242249;19;20014;-85
2022/01/29 15:19:35;;;;;;;13.77;5.60;;;;;;;4.60;100.00;100603.66;12244815;19;20014;-82
2022/01/29 15:23:37;;;;;;;11.60;5.22;;;;;;;4.66;100.00;100608.34;12250956;19;20045;-83
2022/01/29 15:27:38;;;;;;;10.82;5.10;;;;;;;4.57;100.00;100597.53;12246143;19;20067;-83
2022/01/29 15:32:00;;;;;;;8.73;4.57;;;;;;;4.63;100.00;100600.53;12245450;19;20018;-84
2022/01/29 15:36:07;;;;;;;9.80;5.10;;;;;;;4.63;100.00;100595.91;12235575;19;20007;-82
2022/01/29 15:40:08;;;;;;;9.25;4.53;;;;;;;4.60;100.00;100587.25;12248129;19;20011;-85
2022/01/29 15:44:31;;;;;;;6.68;4.28;;;;;;;4.57;100.00;100578.41;12234686;19;20003;-85
2022/01/29 15:48:35;;;;;;;10.95;4.60;;;;;;;4.61;100.00;100598.00;12246449;19;20069;-84
2022/01/29 15:52:38;;;;;;;7.50;4.10;;;;;;;4.61;100.00;100599.88;12239595;19;20021;-85
2022/01/29 15:56:42;;;;;;;7.78;4.13;;;;;;;4.65;100.00;100604.75;12247028;19;20010;-85
2022/01/29 16:00:46;;;;;;;8.55;4.43;;;;;;;4.59;100.00;100594.63;12245554;19;20003;-85
2022/01/29 16:04:50;;;;;;;10.48;5.10;;;;;;;4.63;100.00;100609.56;12249389;19;20370;-87
2022/01/29 16:08:51;;;;;;;9.25;5.75;;;;;;;4.63;100.00;100606.00;12250284;19;20023;-84
2022/01/29 16:12:53;;;;;;;10.48;4.32;;;;;;;4.60;100.00;100600.91;12262009;19;20050;-81
2022/01/29 16:16:55;;;;;;;10.68;4.70;;;;;;;4.59;100.00;100602.81;12245645;19;20018;-85
2022/01/29 16:20:57;;;;;;;8.33;4.23;;;;;;;4.57;100.00;100608.44;12236534;19;20447;-85
2022/01/29 16:24:58;;;;;;;10.57;5.40;;;;;;;4.64;100.00;100615.88;12243933;19;20006;-83
2022/01/29 16:29:00;;;;;;;12.35;5.03;;;;;;;4.61;100.00;100608.94;12255257;19;20027;-83
2022/01/29 16:33:02;;;;;;;8.40;4.05;;;;;;;4.62;100.00;100623.41;12260656;19;20389;-84
2022/01/29 16:37:04;;;;;;;7.65;4.68;;;;;;;4.66;100.00;100643.81;12257347;19;20010;-84
2022/01/29 16:41:06;;;;;;;7.38;4.32;;;;;;;4.67;100.00;100631.84;12262634;19;20010;-84
2022/01/29 16:45:09;;;;;;;10.45;5.45;;;;;;;4.70;100.00;100631.47;12268872;19;20014;-85
2022/01/29 16:49:11;;;;;;;11.98;6.07;;;;;;;4.68;100.00;100642.59;12257247;19;20066;-84
2022/01/29 16:53:13;;;;;;;8.97;4.63;;;;;;;4.69;100.00;100646.19;12255326;19;20015;-83
2022/01/29 16:57:15;;;;;;;9.55;5.05;;;;;;;4.72;100.00;100624.78;12260019;19;20010;-86
2022/01/29 17:01:22;;;;;;;6.78;3.90;;;;;;;4.79;100.00;100611.25;12261362;19;20010;-86
2022/01/29 17:05:23;;;;;;;10.88;3.42;;;;;;;4.90;100.00;100607.97;12255685;19;20022;-84
2022/01/29 17:09:25;;;;;;;7.35;3.58;;;;;;;5.03;100.00;100608.13;12258961;19;20055;-85
2022/01/29 17:13:27;;;;;;;5.57;3.33;;;;;;;5.13;100.00;100599.59;12262258;19;20014;-86
2022/01/29 17:17:29;;;;;;;7.57;2.80;;;;;;;5.22;100.00;100597.59;12255791;19;20002;-87
2022/01/29 17:21:34;;;;;;;7.47;4.10;;;;;;;5.34;100.00;100585.09;12259266;19;20031;-86
2022/01/29 17:25:35;;;;;;;4.15;2.33;;;;;;;5.40;100.00;100587.03;12262039;19;20151;-87
2022/01/29 17:29:37;;;;;;;4.88;2.53;;;;;;;5.44;100.00;100599.28;12265797;19;20027;-85
2022/01/29 17:33:39;;;;;;;4.03;2.30;;;;;;;5.55;100.00;100599.78;12273922;19;20096;-83
2022/01/29 17:37:42;;;;;;;5.68;2.53;;;;;;;5.58;100.00;100599.38;12264983;19;20078;-84
2022/01/29 17:41:44;;;;;;;3.55;2.10;;;;;;;5.61;100.00;100593.50;12264584;19;20014;-82
2022/01/29 17:45:47;;;;;;;;;;;;;;;5.59;100.00;100596.47;12260217;19;20015;-82
2022/01/29 17:49:49;;;;;;;4.30;2.08;;;;;;;5.64;100.00;100598.59;12251086;19;19915;-84
2022/01/29 17:53:51;;;;;;;6.57;2.58;;;;;;;5.61;100.00;100580.69;12257893;19;20077;-84
2022/01/29 17:57:53;;;;;;;5.43;2.70;;;;;;;5.58;100.00;100577.50;12265077;19;20017;-81
2022/01/29 18:01:54;;;;;;;6.38;2.85;;;;;;;5.56;100.00;100583.19;12263156;19;20018;-82
2022/01/29 18:05:56;;;;;;;3.33;1.83;;;;;;;5.55;100.00;100575.19;12260866;19;20020;-84
2022/01/29 18:10:00;;;;;;;2.45;1.73;;;;;;;5.58;100.00;100572.03;12259560;19;20013;-82
2022/01/29 18:14:02;;;;;;;3.00;1.65;;;;;;;5.66;100.00;100575.47;12253678;19;20022;-86
2022/01/29 18:18:04;;;;;;;2.50;1.63;;;;;;;5.67;100.00;100573.56;12251890;19;20108;-83
2022/01/29 18:22:06;;;;;;;2.50;1.60;;;;;;;5.76;100.00;100555.97;12262117;19;20086;-83
2022/01/29 18:26:09;;;;;;;2.47;1.75;;;;;;;5.85;100.00;100568.44;12264338;19;20011;-82
2022/01/29 18:30:14;;;;;;;2.65;1.55;;;;;;;5.81;100.00;100567.16;12269186;19;20312;-81
2022/01/29 18:34:16;;;;;;;3.25;1.45;;;;;;;5.89;100.00;100579.84;12250230;19;20014;-82
2022/01/29 18:38:19;;;;;;;1.95;1.48;;;;;;;5.86;100.00;100567.41;12245520;19;20050;-78
2022/01/29 18:42:20;;;;;;;2.75;1.60;;;;;;;5.90;100.00;100585.09;12254095;19;20006;-78
2022/01/29 18:46:22;;;;;;;4.05;2.10;;;;;;;5.92;100.00;100590.38;12253996;19;20049;-80
2022/01/29 18:50:24;;;;;;;3.70;1.83;;;;;;;5.91;100.00;100589.53;12244218;19;20017;-81